Flight Track Log - Related Links

Times and Time Zones

All times are in EDT time to prevent confusion due to time zone crossing. See the CSN3578 flight status page for this flight to view local times or setup timezone preferences in your user account.

Time Position Orientation Groundspeed Altitude Reporting Facility
EDT Latitude Longitude Course Direction KTS MPH feet Rate Location/Type
Wed 06:35:00 AM 25.8829 119.5647 240° Southwest  Level Estimated
Wed 06:36:00 AM 25.8306 119.4663 239° Southwest  Level Estimated
Wed 06:37:00 AM 25.7782 119.3680 239° Southwest  Level Estimated
Wed 06:38:00 AM 25.7258 119.2697 239° Southwest  Level Estimated
Wed 06:39:00 AM 25.6733 119.1715 239° Southwest  Level Estimated
Wed 06:40:00 AM 25.6208 119.0734 239° Southwest  Level Estimated
Wed 06:41:00 AM 25.5682 118.9754 239° Southwest  Level Estimated
Wed 06:42:00 AM 25.5155 118.8775 239° Southwest  Level Estimated
Wed 06:43:00 AM 25.4627 118.7796 239° Southwest  Level Estimated
Wed 06:44:00 AM 25.4100 118.6819 239° Southwest  Level Estimated
Wed 06:45:00 AM 25.3571 118.5842 239° Southwest  Level Estimated
Wed 06:46:00 AM 25.3074 118.4927 239° Southwest  Level Estimated
Wed 06:47:00 AM 25.2577 118.4012 239° Southwest  Level Estimated
Wed 06:48:00 AM 25.2079 118.3097 239° Southwest  Level Estimated
Wed 06:49:00 AM 25.1580 118.2184 239° Southwest  Level Estimated
Wed 06:50:00 AM 25.1081 118.1271 239° Southwest  Level Estimated
Wed 06:51:00 AM 25.0582 118.0359 239° Southwest  Level Estimated
Wed 06:52:00 AM 25.0082 117.9448 239° Southwest  Level Estimated
Wed 06:53:00 AM 24.9581 117.8537 239° Southwest  Level Estimated
Wed 06:54:00 AM 24.9080 117.7627 239° Southwest  Level Estimated
Wed 06:55:00 AM 24.8578 117.6718 239° Southwest  Level Estimated
Wed 06:56:00 AM 24.8076 117.5810 239° Southwest  Level Estimated
Wed 06:57:00 AM 24.7573 117.4902 239° Southwest  Level Estimated
Wed 06:58:00 AM 24.7069 117.3996 239° Southwest  Level Estimated
Wed 06:59:00 AM 24.6565 117.3090 239° Southwest  Level Estimated
Wed 07:00:00 AM 24.6061 117.2184 239° Southwest  Level Estimated
Wed 07:01:00 AM 24.5556 117.1279 238° Southwest  Level Estimated
Wed 07:02:00 AM 24.5050 117.0376 238° Southwest  Level Estimated
Wed 07:03:00 AM 24.4544 116.9472 238° Southwest  Level Estimated
Wed 07:04:00 AM 24.4037 116.8570 238° Southwest  Level Estimated
Wed 07:05:00 AM 24.3530 116.7668 238° Southwest  Level Estimated
Wed 07:06:00 AM 24.3022 116.6767 238° Southwest  Level Estimated
Wed 07:07:00 AM 24.2514 116.5867 238° Southwest  Level Estimated
Wed 07:08:00 AM 24.2005 116.4967 238° Southwest  Level Estimated
Wed 07:09:00 AM 24.1496 116.4068 238° Southwest  Level Estimated
Wed 07:10:00 AM 24.0986 116.3170 238° Southwest  Level Estimated
Wed 07:11:00 AM 24.0476 116.2273 238° Southwest  Level Estimated
Wed 07:12:00 AM 23.9965 116.1376 238° Southwest  Level Estimated
Wed 07:13:00 AM 23.9454 116.0480 238° Southwest  Level Estimated
Wed 07:14:00 AM 23.8942 115.9585 238° Southwest  Level Estimated
Wed 07:15:00 AM 23.8429 115.8690 238° Southwest  Level Estimated
Wed 07:16:00 AM 23.7916 115.7796 238° Southwest  Level Estimated
Wed 07:17:00 AM 23.7403 115.6903 238° Southwest  Level Estimated
Wed 07:18:00 AM 23.6889 115.6011 238° Southwest  Level Estimated
Wed 07:19:00 AM 23.6374 115.5119 238° Southwest  Level Estimated
Wed 07:20:00 AM 23.5859 115.4228 238° Southwest  Level Estimated
Wed 07:21:00 AM 23.5352 115.3351 238° Southwest  Level Estimated
Wed 07:22:00 AM 23.4843 115.2475 238° Southwest  Level Estimated
Wed 07:23:00 AM 23.4335 115.1599 238° Southwest  Level Estimated
Wed 07:24:00 AM 23.3881 115.0819 238° Southwest  Level Estimated
Wed 07:25:00 AM 23.3426 115.0039 238° Southwest  Level Estimated
Wed 07:26:00 AM 23.2971 114.9260 238° Southwest  Level Estimated
Wed 07:27:00 AM 23.2516 114.8481 238° Southwest  Level Estimated
Wed 07:28:00 AM 23.2060 114.7703 238° Southwest  Level Estimated
Wed 07:29:00 AM 23.1604 114.6925 237° Southwest  Level Estimated
Wed 07:30:00 AM 23.1148 114.6148 237° Southwest  Level Estimated
Wed 07:30:41 AM 22.8286 115.1873 264° West 411 473 21,800  Level FlightAware ADS-B
Wed 07:31:00 AM 23.0691 114.5372 237° Southwest  Level Estimated
Wed 07:31:25 AM 22.8181 115.0847 264° West 405 466 20,500  Level FlightAware ADS-B
Wed 07:32:04 AM 22.8106 115.0124 264° West 406 467 19,700 -1,140 Descending FlightAware ADS-B
Wed 07:33:05 AM 22.7975 114.8862 264° West 401 461 18,600 -1,080 Descending FlightAware ADS-B
Wed 07:33:44 AM 22.7923 114.8362 264° West 377 434 17,900 -975 Descending FlightAware ADS-B
Wed 07:34:25 AM 22.7842 114.7591 264° West 354 407 17,300 -1,111 Descending FlightAware ADS-B
Wed 07:35:05 AM 22.7751 114.6671 264° West 346 398 16,400 -1,367 Descending FlightAware ADS-B
Wed 07:35:44 AM 22.7697 114.6124 264° West 343 395 15,500 -1,622 Descending FlightAware ADS-B
Wed 07:36:19 AM 22.7638 114.5530 264° West 336 387 14,400 -1,481 Descending FlightAware ADS-B
Wed 07:37:05 AM 22.7568 114.4849 264° West 326 375 13,500 -1,466 Descending FlightAware ADS-B
Wed 07:40:00 AM 22.7259 114.1941 263° West 301 346 9,000 -1,543 Descending FlightAware ADS-B
Wed 07:42:00 AM 22.6856 114.0156 256° West  Level Estimated
Wed 07:43:00 AM 22.6654 113.9263 256° West  Level Estimated
Wed 07:44:00 AM 22.6451 113.8371 256° West  Level Estimated
Wed 07:45:00 AM 22.6395 113.8124 256° West  Level Estimated
Wed 07:46:00 AM 22.6395 113.8124 North  Level Estimated
Wed 07:47:00 AM 22.6395 113.8124 North  Level Estimated
Wed 07:48:00 AM 22.6395 113.8124 North  Level Estimated
Wed 07:49:00 AM 22.6395 113.8124 North  Level Estimated
Wed 07:50:00 AM 22.6395 113.8124 North  Level Estimated
Wed 07:51:00 AM 22.6395 113.8124 North  Level Estimated
Wed 07:52:00 AM 22.6395 113.8124 North  Level Estimated
Wed 07:53:00 AM 22.6395 113.8124 North  Level Estimated
Wed 07:54:00 AM 22.6395 113.8124 North  Level Estimated

Login

Don't have an account? Register now (free) for customized features, flight alerts, and more!